createdAt,value
2022-11-07T00:01:24.628Z,8.40
2022-11-07T00:06:16.364Z,8.20
2022-11-07T00:11:08.190Z,8.10
2022-11-07T00:16:02.030Z,8.00
2022-11-07T00:20:53.973Z,7.90
2022-11-07T00:25:45.674Z,7.90
2022-11-07T00:30:37.411Z,7.90
2022-11-07T00:35:29.190Z,7.90
2022-11-07T00:40:21.061Z,7.80
2022-11-07T00:45:13.299Z,7.70
2022-11-07T00:50:06.395Z,7.70
2022-11-07T00:54:58.114Z,7.60
2022-11-07T00:59:49.771Z,7.60
2022-11-07T01:05:00.050Z,7.50
2022-11-07T01:09:51.707Z,7.50
2022-11-07T01:14:43.377Z,7.60
2022-11-07T01:19:35.102Z,7.80
2022-11-07T01:24:26.834Z,7.80
2022-11-07T01:29:19.676Z,8.00
2022-11-07T01:34:11.379Z,8.10
2022-11-07T01:39:04.693Z,8.30
2022-11-07T01:44:08.454Z,8.50
2022-11-07T01:49:22.901Z,8.60
2022-11-07T01:54:19.007Z,8.60
2022-11-07T01:59:18.274Z,8.70
2022-11-07T02:04:12.098Z,8.70
2022-11-07T02:09:04.538Z,8.60
2022-11-07T02:13:56.195Z,8.60
2022-11-07T02:18:48.137Z,8.60
2022-11-07T02:24:00.599Z,8.70
2022-11-07T02:28:55.184Z,8.70
2022-11-07T02:33:46.862Z,8.70
2022-11-07T02:38:38.647Z,8.60
2022-11-07T02:43:32.499Z,8.50
2022-11-07T02:48:39.405Z,8.30
2022-11-07T02:53:31.081Z,8.20
2022-11-07T02:58:22.746Z,8.20
2022-11-07T03:03:15.115Z,8.30
2022-11-07T03:08:07.051Z,8.30
2022-11-07T03:12:58.699Z,8.30
2022-11-07T03:17:50.360Z,8.20
2022-11-07T03:22:42.041Z,8.00
2022-11-07T03:27:33.901Z,7.80
2022-11-07T03:32:25.586Z,7.90
2022-11-07T03:37:17.593Z,7.80
2022-11-07T03:42:09.263Z,7.90
2022-11-07T03:47:00.927Z,7.70
2022-11-07T03:51:52.582Z,7.60
2022-11-07T03:56:44.275Z,7.40
2022-11-07T04:01:36.036Z,7.30
2022-11-07T04:06:27.779Z,7.20
2022-11-07T04:11:37.846Z,7.10
2022-11-07T04:16:48.242Z,7.00
2022-11-07T04:21:39.891Z,6.90
2022-11-07T04:26:50.002Z,6.90
2022-11-07T04:31:41.665Z,6.90
2022-11-07T04:36:33.448Z,6.90
2022-11-07T04:41:25.197Z,6.90
2022-11-07T04:46:17.145Z,6.90
2022-11-07T04:51:20.240Z,6.90
2022-11-07T04:56:11.928Z,6.80
2022-11-07T08:18:17.636Z,9.70
